<?xml version="1.0" encoding="UTF-8" standalone="no" ?>
<gpx xmlns="http://www.topografix.com/GPX/1/1" xmlns:xsi="http://www.w3.org/2001/XMLSchema-instance" xsi:schemaLocation="http://www.topografix.com/GPX/1/1 http://www.topografix.com/GPX/1/1/gpx.xsd" version="1.1" creator="VisuGPX - https://www.visugpx.com">
  <metadata>
    <name>Morlaix_JarlotTromorgant_20km</name>
    <desc><![CDATA[gnerando idor:8988255]]></desc>
  </metadata>
  <trk>
    <name><![CDATA[Morlaix_JarlotTromorgant_20.1km-8988255]]></name>
    <extensions>
      <line xmlns="http://www.topografix.com/GPX/gpx_style/0/2">
        <color>0000FF</color>
        <width>4</width>
      </line>
    </extensions>
    <trkseg>
      <trkpt lat="48.5687" lon="-3.82217">
        <ele>83</ele>
        <time>2023-11-05T14:33:28Z</time>
      </trkpt>
      <trkpt lat="48.56834" lon="-3.82222">
        <ele>84</ele>
        <time>2023-11-05T14:34:16Z</time>
      </trkpt>
      <trkpt lat="48.56813" lon="-3.82228">
        <ele>85</ele>
        <time>2023-11-05T14:34:45Z</time>
      </trkpt>
      <trkpt lat="48.5664" lon="-3.82379">
        <ele>93</ele>
        <time>2023-11-05T14:39:11Z</time>
      </trkpt>
      <trkpt lat="48.56633" lon="-3.82389">
        <ele>93</ele>
        <time>2023-11-05T14:39:24Z</time>
      </trkpt>
      <trkpt lat="48.56342" lon="-3.82369">
        <ele>93</ele>
        <time>2023-11-05T14:45:53Z</time>
      </trkpt>
      <trkpt lat="48.56274" lon="-3.82337">
        <ele>94</ele>
        <time>2023-11-05T14:47:28Z</time>
      </trkpt>
      <trkpt lat="48.56266" lon="-3.82316">
        <ele>94</ele>
        <time>2023-11-05T14:47:49Z</time>
      </trkpt>
      <trkpt lat="48.56116" lon="-3.82233">
        <ele>93</ele>
        <time>2023-11-05T14:51:23Z</time>
      </trkpt>
      <trkpt lat="48.56054" lon="-3.82202">
        <ele>92</ele>
        <time>2023-11-05T14:52:50Z</time>
      </trkpt>
      <trkpt lat="48.55997" lon="-3.82202">
        <ele>92</ele>
        <time>2023-11-05T14:54:06Z</time>
      </trkpt>
      <trkpt lat="48.55803" lon="-3.82123">
        <ele>93</ele>
        <time>2023-11-05T14:58:34Z</time>
      </trkpt>
      <trkpt lat="48.55199" lon="-3.81716">
        <ele>96</ele>
        <time>2023-11-05T15:13:16Z</time>
      </trkpt>
      <trkpt lat="48.55285" lon="-3.81554">
        <ele>90</ele>
        <time>2023-11-05T15:16:20Z</time>
      </trkpt>
      <trkpt lat="48.55329" lon="-3.81502">
        <ele>87</ele>
        <time>2023-11-05T15:17:34Z</time>
      </trkpt>
      <trkpt lat="48.55393" lon="-3.8134">
        <ele>93</ele>
        <time>2023-11-05T15:20:21Z</time>
      </trkpt>
      <trkpt lat="48.55447" lon="-3.81173">
        <ele>100</ele>
        <time>2023-11-05T15:23:05Z</time>
      </trkpt>
      <trkpt lat="48.55587" lon="-3.80761">
        <ele>103</ele>
        <time>2023-11-05T15:29:54Z</time>
      </trkpt>
      <trkpt lat="48.55598" lon="-3.80745">
        <ele>103</ele>
        <time>2023-11-05T15:30:15Z</time>
      </trkpt>
      <trkpt lat="48.55483" lon="-3.8073">
        <ele>104</ele>
        <time>2023-11-05T15:32:49Z</time>
      </trkpt>
      <trkpt lat="48.55289" lon="-3.8028">
        <ele>99</ele>
        <time>2023-11-05T15:40:43Z</time>
      </trkpt>
      <trkpt lat="48.55109" lon="-3.803">
        <ele>95</ele>
        <time>2023-11-05T15:44:44Z</time>
      </trkpt>
      <trkpt lat="48.54967" lon="-3.80101">
        <ele>98</ele>
        <time>2023-11-05T15:49:02Z</time>
      </trkpt>
      <trkpt lat="48.54901" lon="-3.80097">
        <ele>97</ele>
        <time>2023-11-05T15:50:31Z</time>
      </trkpt>
      <trkpt lat="48.54714" lon="-3.80455">
        <ele>108</ele>
        <time>2023-11-05T15:57:13Z</time>
      </trkpt>
      <trkpt lat="48.54409" lon="-3.80185">
        <ele>119</ele>
        <time>2023-11-05T16:05:05Z</time>
      </trkpt>
      <trkpt lat="48.54423" lon="-3.79739">
        <ele>107</ele>
        <time>2023-11-05T16:11:40Z</time>
      </trkpt>
      <trkpt lat="48.54494" lon="-3.7957">
        <ele>114</ele>
        <time>2023-11-05T16:14:36Z</time>
      </trkpt>
      <trkpt lat="48.54511" lon="-3.79305">
        <ele>115</ele>
        <time>2023-11-05T16:18:32Z</time>
      </trkpt>
      <trkpt lat="48.54755" lon="-3.79311">
        <ele>98</ele>
        <time>2023-11-05T16:23:57Z</time>
      </trkpt>
      <trkpt lat="48.54869" lon="-3.79392">
        <ele>91</ele>
        <time>2023-11-05T16:26:45Z</time>
      </trkpt>
      <trkpt lat="48.55024" lon="-3.79388">
        <ele>84</ele>
        <time>2023-11-05T16:30:12Z</time>
      </trkpt>
      <trkpt lat="48.55176" lon="-3.79353">
        <ele>77</ele>
        <time>2023-11-05T16:33:38Z</time>
      </trkpt>
      <trkpt lat="48.55199" lon="-3.79336">
        <ele>74</ele>
        <time>2023-11-05T16:34:12Z</time>
      </trkpt>
      <trkpt lat="48.5521" lon="-3.79299">
        <ele>70</ele>
        <time>2023-11-05T16:34:48Z</time>
      </trkpt>
      <trkpt lat="48.55138" lon="-3.79226">
        <ele>69</ele>
        <time>2023-11-05T16:36:43Z</time>
      </trkpt>
      <trkpt lat="48.55102" lon="-3.79195">
        <ele>73</ele>
        <time>2023-11-05T16:37:39Z</time>
      </trkpt>
      <trkpt lat="48.55002" lon="-3.7909">
        <ele>78</ele>
        <time>2023-11-05T16:40:21Z</time>
      </trkpt>
      <trkpt lat="48.5502" lon="-3.79017">
        <ele>80</ele>
        <time>2023-11-05T16:41:30Z</time>
      </trkpt>
      <trkpt lat="48.55023" lon="-3.78944">
        <ele>81</ele>
        <time>2023-11-05T16:42:34Z</time>
      </trkpt>
      <trkpt lat="48.55034" lon="-3.78887">
        <ele>83</ele>
        <time>2023-11-05T16:43:27Z</time>
      </trkpt>
      <trkpt lat="48.55073" lon="-3.7884">
        <ele>83</ele>
        <time>2023-11-05T16:44:33Z</time>
      </trkpt>
      <trkpt lat="48.55005" lon="-3.78626">
        <ele>83</ele>
        <time>2023-11-05T16:48:03Z</time>
      </trkpt>
      <trkpt lat="48.5498" lon="-3.78605">
        <ele>83</ele>
        <time>2023-11-05T16:48:41Z</time>
      </trkpt>
      <trkpt lat="48.54941" lon="-3.78584">
        <ele>82</ele>
        <time>2023-11-05T16:49:37Z</time>
      </trkpt>
      <trkpt lat="48.54926" lon="-3.78568">
        <ele>81</ele>
        <time>2023-11-05T16:50:01Z</time>
      </trkpt>
      <trkpt lat="48.54984" lon="-3.78553">
        <ele>77</ele>
        <time>2023-11-05T16:51:20Z</time>
      </trkpt>
      <trkpt lat="48.55038" lon="-3.78563">
        <ele>70</ele>
        <time>2023-11-05T16:52:32Z</time>
      </trkpt>
      <trkpt lat="48.55077" lon="-3.78553">
        <ele>61</ele>
        <time>2023-11-05T16:53:25Z</time>
      </trkpt>
      <trkpt lat="48.55131" lon="-3.78563">
        <ele>53</ele>
        <time>2023-11-05T16:54:38Z</time>
      </trkpt>
      <trkpt lat="48.55174" lon="-3.78553">
        <ele>47</ele>
        <time>2023-11-05T16:55:36Z</time>
      </trkpt>
      <trkpt lat="48.55199" lon="-3.78537">
        <ele>49</ele>
        <time>2023-11-05T16:56:12Z</time>
      </trkpt>
      <trkpt lat="48.5521" lon="-3.7849">
        <ele>53</ele>
        <time>2023-11-05T16:56:56Z</time>
      </trkpt>
      <trkpt lat="48.55217" lon="-3.78443">
        <ele>57</ele>
        <time>2023-11-05T16:57:39Z</time>
      </trkpt>
      <trkpt lat="48.55224" lon="-3.78391">
        <ele>61</ele>
        <time>2023-11-05T16:58:25Z</time>
      </trkpt>
      <trkpt lat="48.55199" lon="-3.78328">
        <ele>60</ele>
        <time>2023-11-05T16:59:30Z</time>
      </trkpt>
      <trkpt lat="48.55178" lon="-3.7826">
        <ele>59</ele>
        <time>2023-11-05T17:00:37Z</time>
      </trkpt>
      <trkpt lat="48.55153" lon="-3.78172">
        <ele>65</ele>
        <time>2023-11-05T17:02:01Z</time>
      </trkpt>
      <trkpt lat="48.55124" lon="-3.78114">
        <ele>67</ele>
        <time>2023-11-05T17:03:05Z</time>
      </trkpt>
      <trkpt lat="48.55081" lon="-3.78046">
        <ele>68</ele>
        <time>2023-11-05T17:04:28Z</time>
      </trkpt>
      <trkpt lat="48.54955" lon="-3.77905">
        <ele>70</ele>
        <time>2023-11-05T17:07:58Z</time>
      </trkpt>
      <trkpt lat="48.54887" lon="-3.77848">
        <ele>70</ele>
        <time>2023-11-05T17:09:41Z</time>
      </trkpt>
      <trkpt lat="48.54851" lon="-3.77759">
        <ele>76</ele>
        <time>2023-11-05T17:11:14Z</time>
      </trkpt>
      <trkpt lat="48.548" lon="-3.77733">
        <ele>71</ele>
        <time>2023-11-05T17:12:25Z</time>
      </trkpt>
      <trkpt lat="48.54768" lon="-3.77665">
        <ele>76</ele>
        <time>2023-11-05T17:13:39Z</time>
      </trkpt>
      <trkpt lat="48.547" lon="-3.7753">
        <ele>81</ele>
        <time>2023-11-05T17:16:09Z</time>
      </trkpt>
      <trkpt lat="48.54693" lon="-3.77519">
        <ele>81</ele>
        <time>2023-11-05T17:16:22Z</time>
      </trkpt>
      <trkpt lat="48.54822" lon="-3.77342">
        <ele>116</ele>
        <time>2023-11-05T17:20:15Z</time>
      </trkpt>
      <trkpt lat="48.54894" lon="-3.77383">
        <ele>121</ele>
        <time>2023-11-05T17:21:58Z</time>
      </trkpt>
      <trkpt lat="48.55041" lon="-3.77154">
        <ele>112</ele>
        <time>2023-11-05T17:26:39Z</time>
      </trkpt>
      <trkpt lat="48.54998" lon="-3.77112">
        <ele>111</ele>
        <time>2023-11-05T17:27:48Z</time>
      </trkpt>
      <trkpt lat="48.55027" lon="-3.77028">
        <ele>107</ele>
        <time>2023-11-05T17:29:11Z</time>
      </trkpt>
      <trkpt lat="48.55066" lon="-3.76981">
        <ele>104</ele>
        <time>2023-11-05T17:30:18Z</time>
      </trkpt>
      <trkpt lat="48.55106" lon="-3.76898">
        <ele>100</ele>
        <time>2023-11-05T17:31:49Z</time>
      </trkpt>
      <trkpt lat="48.5516" lon="-3.76861">
        <ele>96</ele>
        <time>2023-11-05T17:33:08Z</time>
      </trkpt>
      <trkpt lat="48.55246" lon="-3.76814">
        <ele>98</ele>
        <time>2023-11-05T17:35:10Z</time>
      </trkpt>
      <trkpt lat="48.55321" lon="-3.76794">
        <ele>99</ele>
        <time>2023-11-05T17:36:52Z</time>
      </trkpt>
      <trkpt lat="48.55418" lon="-3.76762">
        <ele>100</ele>
        <time>2023-11-05T17:39:04Z</time>
      </trkpt>
      <trkpt lat="48.55505" lon="-3.76642">
        <ele>88</ele>
        <time>2023-11-05T17:41:41Z</time>
      </trkpt>
      <trkpt lat="48.55612" lon="-3.76653">
        <ele>82</ele>
        <time>2023-11-05T17:44:04Z</time>
      </trkpt>
      <trkpt lat="48.55745" lon="-3.76726">
        <ele>72</ele>
        <time>2023-11-05T17:47:13Z</time>
      </trkpt>
      <trkpt lat="48.55795" lon="-3.76728">
        <ele>76</ele>
        <time>2023-11-05T17:48:20Z</time>
      </trkpt>
      <trkpt lat="48.55846" lon="-3.76724">
        <ele>81</ele>
        <time>2023-11-05T17:49:28Z</time>
      </trkpt>
      <trkpt lat="48.55897" lon="-3.76741">
        <ele>85</ele>
        <time>2023-11-05T17:50:38Z</time>
      </trkpt>
      <trkpt lat="48.55979" lon="-3.76801">
        <ele>88</ele>
        <time>2023-11-05T17:52:39Z</time>
      </trkpt>
      <trkpt lat="48.5604" lon="-3.76823">
        <ele>89</ele>
        <time>2023-11-05T17:54:03Z</time>
      </trkpt>
      <trkpt lat="48.56219" lon="-3.76492">
        <ele>73</ele>
        <time>2023-11-05T18:00:21Z</time>
      </trkpt>
      <trkpt lat="48.56345" lon="-3.7567">
        <ele>75</ele>
        <time>2023-11-05T18:12:46Z</time>
      </trkpt>
      <trkpt lat="48.56371" lon="-3.75612">
        <ele>72</ele>
        <time>2023-11-05T18:13:48Z</time>
      </trkpt>
      <trkpt lat="48.56422" lon="-3.75636">
        <ele>65</ele>
        <time>2023-11-05T18:14:59Z</time>
      </trkpt>
      <trkpt lat="48.5649" lon="-3.75551">
        <ele>71</ele>
        <time>2023-11-05T18:16:57Z</time>
      </trkpt>
      <trkpt lat="48.56604" lon="-3.75278">
        <ele>102</ele>
        <time>2023-11-05T18:21:42Z</time>
      </trkpt>
      <trkpt lat="48.56685" lon="-3.75136">
        <ele>106</ele>
        <time>2023-11-05T18:24:27Z</time>
      </trkpt>
      <trkpt lat="48.56741" lon="-3.7512">
        <ele>103</ele>
        <time>2023-11-05T18:25:43Z</time>
      </trkpt>
      <trkpt lat="48.56859" lon="-3.75212">
        <ele>107</ele>
        <time>2023-11-05T18:28:41Z</time>
      </trkpt>
      <trkpt lat="48.56822" lon="-3.75472">
        <ele>105</ele>
        <time>2023-11-05T18:32:35Z</time>
      </trkpt>
      <trkpt lat="48.56923" lon="-3.75559">
        <ele>106</ele>
        <time>2023-11-05T18:35:11Z</time>
      </trkpt>
      <trkpt lat="48.56933" lon="-3.75682">
        <ele>111</ele>
        <time>2023-11-05T18:37:00Z</time>
      </trkpt>
      <trkpt lat="48.56849" lon="-3.75858">
        <ele>107</ele>
        <time>2023-11-05T18:40:12Z</time>
      </trkpt>
      <trkpt lat="48.56844" lon="-3.76022">
        <ele>107</ele>
        <time>2023-11-05T18:42:37Z</time>
      </trkpt>
      <trkpt lat="48.56708" lon="-3.76116">
        <ele>101</ele>
        <time>2023-11-05T18:45:56Z</time>
      </trkpt>
      <trkpt lat="48.56791" lon="-3.7635">
        <ele>97</ele>
        <time>2023-11-05T18:49:51Z</time>
      </trkpt>
      <trkpt lat="48.5692" lon="-3.76432">
        <ele>105</ele>
        <time>2023-11-05T18:52:57Z</time>
      </trkpt>
      <trkpt lat="48.57014" lon="-3.76697">
        <ele>109</ele>
        <time>2023-11-05T18:57:23Z</time>
      </trkpt>
      <trkpt lat="48.56651" lon="-3.77032">
        <ele>108</ele>
        <time>2023-11-05T19:06:50Z</time>
      </trkpt>
      <trkpt lat="48.56506" lon="-3.77139">
        <ele>95</ele>
        <time>2023-11-05T19:10:26Z</time>
      </trkpt>
      <trkpt lat="48.56388" lon="-3.77105">
        <ele>76</ele>
        <time>2023-11-05T19:13:06Z</time>
      </trkpt>
      <trkpt lat="48.56291" lon="-3.76978">
        <ele>64</ele>
        <time>2023-11-05T19:15:57Z</time>
      </trkpt>
      <trkpt lat="48.56331" lon="-3.77201">
        <ele>59</ele>
        <time>2023-11-05T19:19:21Z</time>
      </trkpt>
      <trkpt lat="48.56338" lon="-3.77404">
        <ele>58</ele>
        <time>2023-11-05T19:22:21Z</time>
      </trkpt>
      <trkpt lat="48.56288" lon="-3.77425">
        <ele>63</ele>
        <time>2023-11-05T19:23:30Z</time>
      </trkpt>
      <trkpt lat="48.56284" lon="-3.77425">
        <ele>63</ele>
        <time>2023-11-05T19:23:35Z</time>
      </trkpt>
      <trkpt lat="48.56248" lon="-3.77493">
        <ele>71</ele>
        <time>2023-11-05T19:24:52Z</time>
      </trkpt>
      <trkpt lat="48.56335" lon="-3.77561">
        <ele>64</ele>
        <time>2023-11-05T19:27:03Z</time>
      </trkpt>
      <trkpt lat="48.56367" lon="-3.77754">
        <ele>61</ele>
        <time>2023-11-05T19:29:59Z</time>
      </trkpt>
      <trkpt lat="48.56529" lon="-3.77926">
        <ele>62</ele>
        <time>2023-11-05T19:34:23Z</time>
      </trkpt>
      <trkpt lat="48.56593" lon="-3.77952">
        <ele>54</ele>
        <time>2023-11-05T19:35:51Z</time>
      </trkpt>
      <trkpt lat="48.56615" lon="-3.78015">
        <ele>59</ele>
        <time>2023-11-05T19:36:54Z</time>
      </trkpt>
      <trkpt lat="48.5669" lon="-3.78323">
        <ele>55</ele>
        <time>2023-11-05T19:41:44Z</time>
      </trkpt>
      <trkpt lat="48.56647" lon="-3.78401">
        <ele>54</ele>
        <time>2023-11-05T19:43:14Z</time>
      </trkpt>
      <trkpt lat="48.56565" lon="-3.78516">
        <ele>56</ele>
        <time>2023-11-05T19:45:43Z</time>
      </trkpt>
      <trkpt lat="48.56486" lon="-3.7861">
        <ele>63</ele>
        <time>2023-11-05T19:47:57Z</time>
      </trkpt>
      <trkpt lat="48.56399" lon="-3.7872">
        <ele>65</ele>
        <time>2023-11-05T19:50:29Z</time>
      </trkpt>
      <trkpt lat="48.56345" lon="-3.78798">
        <ele>68</ele>
        <time>2023-11-05T19:52:08Z</time>
      </trkpt>
      <trkpt lat="48.56353" lon="-3.7885">
        <ele>68</ele>
        <time>2023-11-05T19:52:56Z</time>
      </trkpt>
      <trkpt lat="48.56514" lon="-3.78939">
        <ele>44</ele>
        <time>2023-11-05T19:56:44Z</time>
      </trkpt>
      <trkpt lat="48.56622" lon="-3.79143">
        <ele>38</ele>
        <time>2023-11-05T20:00:35Z</time>
      </trkpt>
      <trkpt lat="48.56593" lon="-3.79163">
        <ele>40</ele>
        <time>2023-11-05T20:01:18Z</time>
      </trkpt>
      <trkpt lat="48.56575" lon="-3.79242">
        <ele>42</ele>
        <time>2023-11-05T20:02:31Z</time>
      </trkpt>
      <trkpt lat="48.56568" lon="-3.79367">
        <ele>43</ele>
        <time>2023-11-05T20:04:22Z</time>
      </trkpt>
      <trkpt lat="48.56554" lon="-3.79466">
        <ele>41</ele>
        <time>2023-11-05T20:05:52Z</time>
      </trkpt>
      <trkpt lat="48.5655" lon="-3.79529">
        <ele>38</ele>
        <time>2023-11-05T20:06:47Z</time>
      </trkpt>
      <trkpt lat="48.56554" lon="-3.79623">
        <ele>33</ele>
        <time>2023-11-05T20:08:11Z</time>
      </trkpt>
      <trkpt lat="48.56561" lon="-3.79748">
        <ele>31</ele>
        <time>2023-11-05T20:10:01Z</time>
      </trkpt>
      <trkpt lat="48.56565" lon="-3.798">
        <ele>31</ele>
        <time>2023-11-05T20:10:48Z</time>
      </trkpt>
      <trkpt lat="48.5668" lon="-3.79858">
        <ele>26</ele>
        <time>2023-11-05T20:13:29Z</time>
      </trkpt>
      <trkpt lat="48.56716" lon="-3.79873">
        <ele>28</ele>
        <time>2023-11-05T20:14:19Z</time>
      </trkpt>
      <trkpt lat="48.56726" lon="-3.79936">
        <ele>29</ele>
        <time>2023-11-05T20:15:16Z</time>
      </trkpt>
      <trkpt lat="48.56734" lon="-3.79973">
        <ele>29</ele>
        <time>2023-11-05T20:15:51Z</time>
      </trkpt>
      <trkpt lat="48.56992" lon="-3.80202">
        <ele>44</ele>
        <time>2023-11-05T20:22:30Z</time>
      </trkpt>
      <trkpt lat="48.57064" lon="-3.80265">
        <ele>41</ele>
        <time>2023-11-05T20:24:21Z</time>
      </trkpt>
      <trkpt lat="48.57114" lon="-3.80359">
        <ele>48</ele>
        <time>2023-11-05T20:26:08Z</time>
      </trkpt>
      <trkpt lat="48.57114" lon="-3.80552">
        <ele>41</ele>
        <time>2023-11-05T20:28:58Z</time>
      </trkpt>
      <trkpt lat="48.5714" lon="-3.80735">
        <ele>53</ele>
        <time>2023-11-05T20:31:43Z</time>
      </trkpt>
      <trkpt lat="48.5714" lon="-3.80829">
        <ele>53</ele>
        <time>2023-11-05T20:33:06Z</time>
      </trkpt>
      <trkpt lat="48.57197" lon="-3.80933">
        <ele>52</ele>
        <time>2023-11-05T20:35:06Z</time>
      </trkpt>
      <trkpt lat="48.57219" lon="-3.80938">
        <ele>54</ele>
        <time>2023-11-05T20:35:35Z</time>
      </trkpt>
      <trkpt lat="48.57294" lon="-3.81032">
        <ele>49</ele>
        <time>2023-11-05T20:37:45Z</time>
      </trkpt>
      <trkpt lat="48.57359" lon="-3.81095">
        <ele>48</ele>
        <time>2023-11-05T20:39:28Z</time>
      </trkpt>
      <trkpt lat="48.57398" lon="-3.81184">
        <ele>44</ele>
        <time>2023-11-05T20:41:03Z</time>
      </trkpt>
      <trkpt lat="48.57413" lon="-3.81252">
        <ele>40</ele>
        <time>2023-11-05T20:42:06Z</time>
      </trkpt>
      <trkpt lat="48.57395" lon="-3.81267">
        <ele>36</ele>
        <time>2023-11-05T20:42:33Z</time>
      </trkpt>
      <trkpt lat="48.5737" lon="-3.8133">
        <ele>27</ele>
        <time>2023-11-05T20:43:38Z</time>
      </trkpt>
      <trkpt lat="48.57337" lon="-3.81345">
        <ele>21</ele>
        <time>2023-11-05T20:44:24Z</time>
      </trkpt>
      <trkpt lat="48.5733" lon="-3.81387">
        <ele>18</ele>
        <time>2023-11-05T20:45:02Z</time>
      </trkpt>
      <trkpt lat="48.5733" lon="-3.81398">
        <ele>18</ele>
        <time>2023-11-05T20:45:12Z</time>
      </trkpt>
      <trkpt lat="48.57337" lon="-3.81455">
        <ele>16</ele>
        <time>2023-11-05T20:46:03Z</time>
      </trkpt>
      <trkpt lat="48.57362" lon="-3.81492">
        <ele>17</ele>
        <time>2023-11-05T20:46:50Z</time>
      </trkpt>
      <trkpt lat="48.57384" lon="-3.81549">
        <ele>18</ele>
        <time>2023-11-05T20:47:48Z</time>
      </trkpt>
      <trkpt lat="48.57405" lon="-3.81565">
        <ele>18</ele>
        <time>2023-11-05T20:48:20Z</time>
      </trkpt>
      <trkpt lat="48.57427" lon="-3.81575">
        <ele>19</ele>
        <time>2023-11-05T20:48:50Z</time>
      </trkpt>
      <trkpt lat="48.57449" lon="-3.81601">
        <ele>21</ele>
        <time>2023-11-05T20:49:28Z</time>
      </trkpt>
      <trkpt lat="48.57477" lon="-3.81648">
        <ele>21</ele>
        <time>2023-11-05T20:50:23Z</time>
      </trkpt>
      <trkpt lat="48.57492" lon="-3.81669">
        <ele>20</ele>
        <time>2023-11-05T20:50:51Z</time>
      </trkpt>
      <trkpt lat="48.5751" lon="-3.81732">
        <ele>19</ele>
        <time>2023-11-05T20:51:51Z</time>
      </trkpt>
      <trkpt lat="48.57503" lon="-3.81774">
        <ele>18</ele>
        <time>2023-11-05T20:52:29Z</time>
      </trkpt>
      <trkpt lat="48.57488" lon="-3.81794">
        <ele>20</ele>
        <time>2023-11-05T20:52:56Z</time>
      </trkpt>
      <trkpt lat="48.57488" lon="-3.81826">
        <ele>21</ele>
        <time>2023-11-05T20:53:24Z</time>
      </trkpt>
      <trkpt lat="48.57488" lon="-3.81899">
        <ele>25</ele>
        <time>2023-11-05T20:54:29Z</time>
      </trkpt>
      <trkpt lat="48.57492" lon="-3.81951">
        <ele>26</ele>
        <time>2023-11-05T20:55:15Z</time>
      </trkpt>
      <trkpt lat="48.57495" lon="-3.82014">
        <ele>26</ele>
        <time>2023-11-05T20:56:11Z</time>
      </trkpt>
      <trkpt lat="48.57495" lon="-3.8205">
        <ele>24</ele>
        <time>2023-11-05T20:56:43Z</time>
      </trkpt>
      <trkpt lat="48.57492" lon="-3.82076">
        <ele>22</ele>
        <time>2023-11-05T20:57:06Z</time>
      </trkpt>
      <trkpt lat="48.57409" lon="-3.82076">
        <ele>29</ele>
        <time>2023-11-05T20:58:57Z</time>
      </trkpt>
      <trkpt lat="48.57366" lon="-3.82061">
        <ele>30</ele>
        <time>2023-11-05T20:59:56Z</time>
      </trkpt>
      <trkpt lat="48.57366" lon="-3.82097">
        <ele>27</ele>
        <time>2023-11-05T21:00:27Z</time>
      </trkpt>
      <trkpt lat="48.5737" lon="-3.82134">
        <ele>24</ele>
        <time>2023-11-05T21:01:01Z</time>
      </trkpt>
      <trkpt lat="48.57355" lon="-3.8216">
        <ele>23</ele>
        <time>2023-11-05T21:01:31Z</time>
      </trkpt>
      <trkpt lat="48.57287" lon="-3.82092">
        <ele>27</ele>
        <time>2023-11-05T21:03:20Z</time>
      </trkpt>
      <trkpt lat="48.57251" lon="-3.82071">
        <ele>27</ele>
        <time>2023-11-05T21:04:11Z</time>
      </trkpt>
      <trkpt lat="48.57255" lon="-3.82128">
        <ele>29</ele>
        <time>2023-11-05T21:05:02Z</time>
      </trkpt>
      <trkpt lat="48.57262" lon="-3.8216">
        <ele>30</ele>
        <time>2023-11-05T21:05:32Z</time>
      </trkpt>
      <trkpt lat="48.57258" lon="-3.82249">
        <ele>37</ele>
        <time>2023-11-05T21:06:50Z</time>
      </trkpt>
      <trkpt lat="48.57222" lon="-3.82243">
        <ele>42</ele>
        <time>2023-11-05T21:07:39Z</time>
      </trkpt>
      <trkpt lat="48.57168" lon="-3.82228">
        <ele>49</ele>
        <time>2023-11-05T21:08:52Z</time>
      </trkpt>
      <trkpt lat="48.57143" lon="-3.82212">
        <ele>53</ele>
        <time>2023-11-05T21:09:28Z</time>
      </trkpt>
      <trkpt lat="48.57107" lon="-3.82202">
        <ele>59</ele>
        <time>2023-11-05T21:10:17Z</time>
      </trkpt>
      <trkpt lat="48.57057" lon="-3.82191">
        <ele>67</ele>
        <time>2023-11-05T21:11:25Z</time>
      </trkpt>
      <trkpt lat="48.56935" lon="-3.82196">
        <ele>81</ele>
        <time>2023-11-05T21:14:07Z</time>
      </trkpt>
      <trkpt lat="48.56895" lon="-3.82196">
        <ele>82</ele>
        <time>2023-11-05T21:15:01Z</time>
      </trkpt>
      <trkpt lat="48.56863" lon="-3.82217">
        <ele>83</ele>
        <time>2023-11-05T21:15:47Z</time>
      </trkpt>
    </trkseg>
  </trk>
</gpx>